createdAt,value
2019-03-16T00:00:32.885Z,9.84
2019-03-16T00:03:06.389Z,9.76
2019-03-16T00:05:39.704Z,9.85
2019-03-16T00:08:13.091Z,9.77
2019-03-16T00:10:46.493Z,9.71
2019-03-16T00:13:19.845Z,9.78
2019-03-16T00:15:53.709Z,9.85
2019-03-16T00:18:27.742Z,9.93
2019-03-16T00:21:01.489Z,9.73
2019-03-16T00:23:34.835Z,9.92
2019-03-16T00:26:08.216Z,9.91
2019-03-16T00:28:41.695Z,9.89
2019-03-16T00:31:15.023Z,9.88
2019-03-16T00:33:48.551Z,9.85
2019-03-16T00:36:22.070Z,9.94
2019-03-16T00:38:55.666Z,9.99
2019-03-16T00:41:28.974Z,9.92
2019-03-16T00:44:02.351Z,9.98
2019-03-16T00:46:35.683Z,10.02
2019-03-16T00:49:09.055Z,9.92
2019-03-16T00:51:42.373Z,10.01
2019-03-16T00:54:15.728Z,9.96
2019-03-16T00:56:49.043Z,9.94
2019-03-16T00:59:24.086Z,9.95
2019-03-16T01:01:57.413Z,10.08
2019-03-16T01:04:30.762Z,10.07
2019-03-16T01:07:04.234Z,10.03
2019-03-16T01:09:37.590Z,10.10
2019-03-16T01:12:10.914Z,10.03
2019-03-16T01:14:44.262Z,9.99
2019-03-16T01:17:17.639Z,9.97
2019-03-16T01:19:50.979Z,9.76
2019-03-16T01:22:24.303Z,9.79
2019-03-16T01:24:57.640Z,9.95
2019-03-16T01:27:31.031Z,9.86
2019-03-16T01:30:07.417Z,9.90
2019-03-16T01:32:41.190Z,9.89
2019-03-16T01:35:14.642Z,9.80
2019-03-16T01:37:48.032Z,9.73
2019-03-16T01:40:21.390Z,9.93
2019-03-16T01:42:54.707Z,9.84
2019-03-16T01:45:28.112Z,9.83
2019-03-16T01:48:01.429Z,9.86
2019-03-16T01:50:34.805Z,9.82
2019-03-16T01:53:08.119Z,9.87
2019-03-16T01:55:41.462Z,9.84
2019-03-16T01:58:14.830Z,9.86
2019-03-16T02:00:48.181Z,9.76
2019-03-16T02:03:21.498Z,9.92
2019-03-16T02:05:54.846Z,9.81
2019-03-16T02:08:28.252Z,9.67
2019-03-16T02:11:01.670Z,9.73
2019-03-16T02:13:34.980Z,9.77
2019-03-16T02:16:11.382Z,9.79
2019-03-16T02:18:43.552Z,9.66
2019-03-16T02:21:17.032Z,9.69
2019-03-16T02:23:50.412Z,9.58
2019-03-16T02:26:23.800Z,9.56
2019-03-16T02:28:57.141Z,9.64
2019-03-16T02:31:30.547Z,9.54
2019-03-16T02:34:03.919Z,9.58
2019-03-16T02:36:38.870Z,9.64
2019-03-16T02:39:12.239Z,9.64
2019-03-16T02:41:45.590Z,9.67
2019-03-16T02:44:18.952Z,9.58
2019-03-16T02:46:52.332Z,9.60
2019-03-16T02:49:25.685Z,9.58
2019-03-16T02:51:59.020Z,9.70
2019-03-16T02:54:32.391Z,9.65
2019-03-16T02:57:05.739Z,9.67
2019-03-16T02:59:39.094Z,9.78
2019-03-16T03:02:12.501Z,9.68
2019-03-16T03:04:46.710Z,9.72
2019-03-16T03:07:20.307Z,9.67
2019-03-16T03:09:53.637Z,9.73
2019-03-16T03:12:27.026Z,9.59
2019-03-16T03:15:00.742Z,9.67
2019-03-16T03:17:34.179Z,9.85
2019-03-16T03:20:09.061Z,9.85
2019-03-16T03:22:42.484Z,9.85
2019-03-16T03:25:15.828Z,9.80
2019-03-16T03:27:49.155Z,9.78
2019-03-16T03:30:22.528Z,9.80
2019-03-16T03:32:55.817Z,9.78
2019-03-16T03:35:29.684Z,9.80
2019-03-16T03:38:03.159Z,9.77
2019-03-16T03:40:36.488Z,9.83
2019-03-16T03:43:09.875Z,9.82
2019-03-16T03:45:43.435Z,9.83
2019-03-16T03:48:16.757Z,9.74
2019-03-16T03:50:50.289Z,9.85
2019-03-16T03:53:23.701Z,9.77
2019-03-16T03:55:57.150Z,9.75
2019-03-16T03:58:30.466Z,9.86
2019-03-16T04:01:04.166Z,9.81
2019-03-16T04:03:37.509Z,9.75
2019-03-16T04:06:10.983Z,9.83
2019-03-16T04:08:44.351Z,9.85
2019-03-16T04:11:17.743Z,9.92
2019-03-16T04:13:51.094Z,9.92
2019-03-16T04:16:24.477Z,9.92
2019-03-16T04:18:57.915Z,9.91
2019-03-16T04:21:31.225Z,9.94
2019-03-16T04:24:04.576Z,9.90
2019-03-16T04:26:37.895Z,9.89
2019-03-16T04:29:11.310Z,9.83
2019-03-16T04:31:44.636Z,9.80
2019-03-16T04:34:28.490Z,9.85
2019-03-16T04:36:53.024Z,9.79
2019-03-16T04:39:26.391Z,9.78
2019-03-16T04:41:59.759Z,9.64
2019-03-16T04:44:33.127Z,9.73
2019-03-16T04:47:06.446Z,9.76
2019-03-16T04:49:39.879Z,9.66
2019-03-16T04:52:13.203Z,9.70
2019-03-16T04:54:46.548Z,9.64
2019-03-16T04:57:19.927Z,9.55
2019-03-16T04:59:53.362Z,9.65
2019-03-16T05:02:26.742Z,9.55
2019-03-16T05:05:00.284Z,9.56
2019-03-16T05:07:33.877Z,9.61
2019-03-16T05:10:11.310Z,9.50
2019-03-16T05:12:44.652Z,9.44
2019-03-16T05:15:18.013Z,9.54
2019-03-16T05:17:51.321Z,9.53
2019-03-16T05:20:24.801Z,9.54
2019-03-16T05:22:58.138Z,9.55
2019-03-16T05:25:31.634Z,9.44
2019-03-16T05:28:05.009Z,9.49
2019-03-16T05:30:38.380Z,9.53
2019-03-16T05:33:11.741Z,9.60
2019-03-16T05:35:45.092Z,9.60
2019-03-16T05:38:18.463Z,9.54
2019-03-16T05:40:52.734Z,9.47
2019-03-16T05:43:26.573Z,9.53
2019-03-16T05:45:59.999Z,9.52
2019-03-16T05:48:33.409Z,9.40
2019-03-16T05:51:07.195Z,9.42
2019-03-16T05:53:40.617Z,9.40
2019-03-16T05:56:13.984Z,9.47
2019-03-16T05:58:47.302Z,9.53
2019-03-16T06:01:20.739Z,9.55
2019-03-16T06:03:54.074Z,9.41
2019-03-16T06:06:27.668Z,9.47
2019-03-16T06:09:01.003Z,9.54
2019-03-16T06:11:34.636Z,9.42
2019-03-16T06:14:07.976Z,9.40
2019-03-16T06:16:41.322Z,9.41
2019-03-16T06:19:14.852Z,9.51
2019-03-16T06:21:48.208Z,9.47
2019-03-16T06:24:23.691Z,9.50
2019-03-16T06:26:56.677Z,9.63
2019-03-16T06:29:30.082Z,9.69
2019-03-16T06:32:03.456Z,9.59
2019-03-16T06:34:36.785Z,9.75
2019-03-16T06:37:10.203Z,9.82
2019-03-16T06:39:43.567Z,9.83
2019-03-16T06:42:17.021Z,9.92
2019-03-16T06:44:50.394Z,9.89
2019-03-16T06:47:23.737Z,9.93
2019-03-16T06:49:57.078Z,9.91
2019-03-16T06:52:30.474Z,10.09
2019-03-16T06:55:04.538Z,10.09
2019-03-16T06:57:37.893Z,10.23
2019-03-16T07:00:13.389Z,10.25
2019-03-16T07:02:46.815Z,10.30
2019-03-16T07:05:23.431Z,10.42
2019-03-16T07:07:55.324Z,10.35
2019-03-16T07:10:28.743Z,10.40
2019-03-16T07:13:02.116Z,10.39
2019-03-16T07:15:35.493Z,10.47
2019-03-16T07:18:08.859Z,10.49
2019-03-16T07:20:42.281Z,10.48
2019-03-16T07:23:15.686Z,10.57
2019-03-16T07:25:48.952Z,10.59
2019-03-16T07:28:22.426Z,10.63
2019-03-16T07:30:55.769Z,10.59
2019-03-16T07:33:29.115Z,10.66
2019-03-16T07:36:02.428Z,10.79
2019-03-16T07:38:35.846Z,10.89
2019-03-16T07:41:09.197Z,10.95
2019-03-16T07:43:42.544Z,10.80
2019-03-16T07:46:15.885Z,10.89
2019-03-16T07:48:49.226Z,10.95
2019-03-16T07:51:22.539Z,10.99
2019-03-16T07:53:55.894Z,11.05
2019-03-16T07:56:29.209Z,11.11
2019-03-16T07:59:02.641Z,11.02
2019-03-16T08:01:36.029Z,11.09
2019-03-16T08:04:09.369Z,11.09
2019-03-16T08:06:42.697Z,11.26
2019-03-16T08:09:16.155Z,11.11
2019-03-16T08:11:49.548Z,11.12
2019-03-16T08:14:22.991Z,11.11
2019-03-16T08:16:56.431Z,11.14
2019-03-16T08:19:29.838Z,11.15
2019-03-16T08:22:03.157Z,11.27
2019-03-16T08:24:36.531Z,11.32
2019-03-16T08:27:09.868Z,11.35
2019-03-16T08:29:43.278Z,11.27
2019-03-16T08:32:16.699Z,11.28
2019-03-16T08:34:50.027Z,11.21
2019-03-16T08:37:23.368Z,11.40
2019-03-16T08:39:56.790Z,11.32
2019-03-16T08:42:30.179Z,11.22
2019-03-16T08:45:04.484Z,11.40
2019-03-16T08:47:37.827Z,11.38
2019-03-16T08:50:11.588Z,11.37
2019-03-16T08:52:44.944Z,11.37
2019-03-16T08:55:18.446Z,11.52
2019-03-16T08:57:51.844Z,11.40
2019-03-16T09:00:25.249Z,11.40
2019-03-16T09:02:58.648Z,11.44
2019-03-16T09:05:32.001Z,11.29
2019-03-16T09:08:05.376Z,11.18
2019-03-16T09:10:38.830Z,11.09
2019-03-16T09:13:12.168Z,11.04
2019-03-16T09:15:45.543Z,10.98
2019-03-16T09:18:18.876Z,10.75
2019-03-16T09:20:52.255Z,10.68
2019-03-16T09:23:25.565Z,10.73
2019-03-16T09:25:58.940Z,10.58
2019-03-16T09:28:32.258Z,10.62
2019-03-16T09:31:05.768Z,10.55
2019-03-16T09:33:39.108Z,10.57
2019-03-16T09:36:12.471Z,10.63
2019-03-16T09:38:45.866Z,10.63
2019-03-16T09:41:19.209Z,10.68
2019-03-16T09:43:52.597Z,10.58
2019-03-16T09:46:25.954Z,10.62
2019-03-16T09:48:59.278Z,10.83
2019-03-16T09:51:32.700Z,10.93
2019-03-16T09:54:06.130Z,10.96
2019-03-16T09:56:40.410Z,11.04
2019-03-16T09:59:13.795Z,10.93
2019-03-16T10:01:47.166Z,11.02
2019-03-16T10:04:20.542Z,11.26
2019-03-16T10:06:53.996Z,11.14
2019-03-16T10:09:27.388Z,11.39
2019-03-16T10:12:00.731Z,11.44
2019-03-16T10:14:37.041Z,11.43
2019-03-16T10:17:09.152Z,11.50
2019-03-16T10:19:42.472Z,11.34
2019-03-16T10:22:15.855Z,11.12
2019-03-16T10:24:49.169Z,10.71
2019-03-16T10:27:22.597Z,10.70
2019-03-16T10:29:55.980Z,10.70
2019-03-16T10:32:29.344Z,10.64
2019-03-16T10:35:02.679Z,10.57
2019-03-16T10:37:36.177Z,10.29
2019-03-16T10:40:11.034Z,10.32
2019-03-16T10:42:44.389Z,10.09
2019-03-16T10:45:17.719Z,10.07
2019-03-16T10:47:51.079Z,9.92
2019-03-16T10:50:24.424Z,10.13
2019-03-16T10:52:57.803Z,10.01
2019-03-16T10:55:31.168Z,10.03
2019-03-16T10:58:04.516Z,9.99
2019-03-16T11:00:37.918Z,10.02
2019-03-16T11:03:11.254Z,9.92
2019-03-16T11:05:44.586Z,9.82
2019-03-16T11:08:17.898Z,9.87
2019-03-16T11:10:51.268Z,9.97
2019-03-16T11:13:24.586Z,9.84
2019-03-16T11:15:57.936Z,9.87
2019-03-16T11:18:31.276Z,10.05
2019-03-16T11:21:04.760Z,10.10
2019-03-16T11:23:38.080Z,10.01
2019-03-16T11:26:11.410Z,9.42
2019-03-16T11:28:44.736Z,9.63
2019-03-16T11:31:18.082Z,9.56
2019-03-16T11:33:51.399Z,9.43
2019-03-16T11:36:24.730Z,9.18
2019-03-16T11:38:58.068Z,9.33
2019-03-16T11:41:31.429Z,9.30
2019-03-16T11:44:04.799Z,9.24
2019-03-16T11:46:38.143Z,9.19
2019-03-16T11:49:11.474Z,9.20
2019-03-16T11:51:44.818Z,9.15
2019-03-16T11:54:18.136Z,9.21
2019-03-16T11:56:51.481Z,9.14
2019-03-16T11:59:24.794Z,9.18
2019-03-16T12:02:05.146Z,9.12
2019-03-16T12:04:33.166Z,9.12
2019-03-16T12:07:06.496Z,9.22
2019-03-16T12:09:39.821Z,9.31
2019-03-16T12:12:13.225Z,9.34
2019-03-16T12:14:46.612Z,9.20
2019-03-16T12:17:19.979Z,9.23
2019-03-16T12:19:53.296Z,9.08
2019-03-16T12:22:26.639Z,9.20
2019-03-16T12:24:59.954Z,9.28
2019-03-16T12:27:33.287Z,9.33
2019-03-16T12:30:11.675Z,9.32
2019-03-16T12:32:45.007Z,9.42
2019-03-16T12:35:18.407Z,9.40
2019-03-16T12:37:51.774Z,9.30
2019-03-16T12:40:25.089Z,9.31
2019-03-16T12:42:58.439Z,9.37
2019-03-16T12:45:31.755Z,9.34
2019-03-16T12:48:05.089Z,9.35
2019-03-16T12:50:38.402Z,9.31
2019-03-16T12:53:11.843Z,9.18
2019-03-16T12:55:45.236Z,9.25
2019-03-16T12:58:18.572Z,9.30
2019-03-16T13:00:52.034Z,9.33
2019-03-16T13:03:25.380Z,9.37
2019-03-16T13:05:58.755Z,9.33
2019-03-16T13:08:32.117Z,9.31
2019-03-16T13:11:05.442Z,9.35
2019-03-16T13:13:38.813Z,9.34
2019-03-16T13:16:12.173Z,9.13
2019-03-16T13:18:45.522Z,9.26
2019-03-16T13:21:18.923Z,9.41
2019-03-16T13:23:52.266Z,9.19
2019-03-16T13:26:25.615Z,9.40
2019-03-16T13:28:58.957Z,9.40
2019-03-16T13:31:32.334Z,9.33
2019-03-16T13:34:05.681Z,9.49
2019-03-16T13:36:39.079Z,9.52
2019-03-16T13:39:12.579Z,9.57
2019-03-16T13:41:46.032Z,9.49
2019-03-16T13:44:19.371Z,9.64
2019-03-16T13:46:52.838Z,9.70
2019-03-16T13:49:26.206Z,9.81
2019-03-16T13:51:59.606Z,9.84
2019-03-16T13:54:33.228Z,9.93
2019-03-16T13:57:06.565Z,9.91
2019-03-16T13:59:39.977Z,9.91
2019-03-16T14:02:13.308Z,9.96
2019-03-16T14:04:47.032Z,10.07
2019-03-16T14:07:20.450Z,10.09
2019-03-16T14:09:53.936Z,10.15
2019-03-16T14:12:27.342Z,10.17
2019-03-16T14:15:01.047Z,10.26
2019-03-16T14:17:34.669Z,10.27
2019-03-16T14:20:11.179Z,10.26
2019-03-16T14:22:44.581Z,10.13
2019-03-16T14:25:18.007Z,10.26
2019-03-16T14:27:51.377Z,10.35
2019-03-16T14:30:39.899Z,10.36
2019-03-16T14:32:59.790Z,10.41
2019-03-16T14:35:33.150Z,10.41
2019-03-16T14:38:06.486Z,10.44
2019-03-16T14:40:39.865Z,10.39
2019-03-16T14:43:13.239Z,10.46
2019-03-16T14:45:48.954Z,10.47
2019-03-16T14:48:21.739Z,10.59
2019-03-16T14:50:55.350Z,10.54
2019-03-16T14:53:28.800Z,10.59
2019-03-16T14:56:02.239Z,10.54
2019-03-16T14:58:35.611Z,10.66
2019-03-16T15:01:09.093Z,10.66
2019-03-16T15:03:42.466Z,10.79
2019-03-16T15:06:15.791Z,10.84
2019-03-16T15:08:49.214Z,10.81
2019-03-16T15:11:22.618Z,10.88
2019-03-16T15:13:55.972Z,10.94
2019-03-16T15:16:29.322Z,11.02
2019-03-16T15:19:02.702Z,11.07
2019-03-16T15:21:36.034Z,11.10
2019-03-16T15:24:09.394Z,11.21
2019-03-16T15:26:42.727Z,11.30
2019-03-16T15:29:16.126Z,11.29
2019-03-16T15:31:49.518Z,11.43
2019-03-16T15:34:22.956Z,11.41
2019-03-16T15:36:56.341Z,11.45
2019-03-16T15:39:29.687Z,11.51
2019-03-16T15:42:03.117Z,11.61
2019-03-16T15:44:38.158Z,11.70
2019-03-16T15:47:11.596Z,11.73
2019-03-16T15:49:44.973Z,11.78
2019-03-16T15:52:18.297Z,11.79
2019-03-16T15:54:51.680Z,11.83
2019-03-16T15:57:25.036Z,11.92
2019-03-16T15:59:58.384Z,11.98
2019-03-16T16:02:31.780Z,12.03
2019-03-16T16:05:07.271Z,11.94
2019-03-16T16:07:40.743Z,12.00
2019-03-16T16:10:20.419Z,12.01
2019-03-16T16:12:53.842Z,11.99
2019-03-16T16:15:27.201Z,12.09
2019-03-16T16:18:00.538Z,12.15
2019-03-16T16:20:33.894Z,12.13
2019-03-16T16:23:07.220Z,12.09
2019-03-16T16:25:40.687Z,12.07
2019-03-16T16:28:14.010Z,12.11
2019-03-16T16:30:47.376Z,12.07
2019-03-16T16:33:20.776Z,12.00
2019-03-16T16:35:54.515Z,12.04
2019-03-16T16:38:27.916Z,12.03
2019-03-16T16:41:01.327Z,11.90
2019-03-16T16:43:34.717Z,12.07
2019-03-16T16:46:08.082Z,12.06
2019-03-16T16:48:41.488Z,12.14
2019-03-16T16:51:14.836Z,12.21
2019-03-16T16:53:48.153Z,12.25
2019-03-16T16:56:21.500Z,12.17
2019-03-16T16:58:54.828Z,12.25
2019-03-16T17:01:29.565Z,12.17
2019-03-16T17:04:03.183Z,12.16
2019-03-16T17:06:36.666Z,12.23
2019-03-16T17:09:10.122Z,12.11
2019-03-16T17:11:43.488Z,12.14
2019-03-16T17:14:16.842Z,12.09
2019-03-16T17:16:50.216Z,12.13
2019-03-16T17:19:23.538Z,12.23
2019-03-16T17:21:56.893Z,12.33
2019-03-16T17:24:30.224Z,12.35
2019-03-16T17:27:03.583Z,12.28
2019-03-16T17:29:36.905Z,12.22
2019-03-16T17:32:10.321Z,12.17
2019-03-16T17:34:43.645Z,12.13
2019-03-16T17:37:17.084Z,12.20
2019-03-16T17:39:50.405Z,12.12
2019-03-16T17:42:23.753Z,12.08
2019-03-16T17:44:57.093Z,12.09
2019-03-16T17:47:30.533Z,12.04
2019-03-16T17:50:04.504Z,12.14
2019-03-16T17:52:37.863Z,12.10
2019-03-16T17:55:13.578Z,12.14
2019-03-16T17:57:47.069Z,12.15
2019-03-16T18:00:20.754Z,12.04
2019-03-16T18:02:54.080Z,12.13
2019-03-16T18:05:27.471Z,12.14
2019-03-16T18:08:00.938Z,12.14
2019-03-16T18:10:34.360Z,12.15
2019-03-16T18:13:07.801Z,12.21
2019-03-16T18:15:41.229Z,12.14
2019-03-16T18:18:15.150Z,12.14
2019-03-16T18:20:48.553Z,12.15
2019-03-16T18:23:21.896Z,12.21
2019-03-16T18:25:55.269Z,12.18
2019-03-16T18:28:28.605Z,12.25
2019-03-16T18:31:02.055Z,12.16
2019-03-16T18:33:35.372Z,12.28
2019-03-16T18:36:11.335Z,12.23
2019-03-16T18:38:43.772Z,12.27
2019-03-16T18:41:17.081Z,12.33
2019-03-16T18:43:50.434Z,12.40
2019-03-16T18:46:23.750Z,12.34
2019-03-16T18:48:57.167Z,12.22
2019-03-16T18:51:30.496Z,12.27
2019-03-16T18:54:03.931Z,12.21
2019-03-16T18:56:37.244Z,12.17
2019-03-16T18:59:10.690Z,12.08
2019-03-16T19:01:44.081Z,12.09
2019-03-16T19:04:17.516Z,12.07
2019-03-16T19:06:50.858Z,12.18
2019-03-16T19:09:24.268Z,11.99
2019-03-16T19:11:57.587Z,11.97
2019-03-16T19:14:30.936Z,12.01
2019-03-16T19:17:04.482Z,12.06
2019-03-16T19:19:37.814Z,12.00
2019-03-16T19:22:11.768Z,12.01
2019-03-16T19:24:45.297Z,12.01
2019-03-16T19:27:19.239Z,11.93
2019-03-16T19:29:52.707Z,12.05
2019-03-16T19:32:33.648Z,12.08
2019-03-16T19:35:01.168Z,12.06
2019-03-16T19:37:34.552Z,11.94
2019-03-16T19:40:15.694Z,12.05
2019-03-16T19:42:49.006Z,11.85
2019-03-16T19:45:22.365Z,11.91
2019-03-16T19:47:55.686Z,11.97
2019-03-16T19:50:29.107Z,11.96
2019-03-16T19:53:02.495Z,11.96
2019-03-16T19:55:35.907Z,11.79
2019-03-16T19:58:09.226Z,11.85
2019-03-16T20:00:42.583Z,11.74
2019-03-16T20:03:15.895Z,11.77
2019-03-16T20:05:49.644Z,11.76
2019-03-16T20:08:23.276Z,11.82
2019-03-16T20:11:05.936Z,11.79
2019-03-16T20:13:31.916Z,11.92
2019-03-16T20:16:05.344Z,11.95
2019-03-16T20:18:38.724Z,11.94
2019-03-16T20:21:12.067Z,12.02
2019-03-16T20:23:45.380Z,12.05
2019-03-16T20:26:18.726Z,12.05
2019-03-16T20:28:52.101Z,12.01
2019-03-16T20:31:25.441Z,12.10
2019-03-16T20:33:58.757Z,11.88
2019-03-16T20:36:32.100Z,11.88
2019-03-16T20:39:07.367Z,11.98
2019-03-16T20:41:40.713Z,12.03
2019-03-16T20:44:14.095Z,12.04
2019-03-16T20:46:47.451Z,11.96
2019-03-16T20:49:20.774Z,12.07
2019-03-16T20:51:54.354Z,12.20
2019-03-16T20:54:27.676Z,12.23
2019-03-16T20:57:01.032Z,12.13
2019-03-16T20:59:34.372Z,12.19
2019-03-16T21:02:07.785Z,12.26
2019-03-16T21:04:41.107Z,12.22
2019-03-16T21:07:14.550Z,12.31
2019-03-16T21:09:48.076Z,11.95
2019-03-16T21:12:21.395Z,12.16
2019-03-16T21:14:54.781Z,12.21
2019-03-16T21:17:28.154Z,12.21
2019-03-16T21:20:01.621Z,12.23
2019-03-16T21:22:38.788Z,12.23
2019-03-16T21:25:11.936Z,12.29
2019-03-16T21:27:45.480Z,12.42
2019-03-16T21:30:20.346Z,12.31
2019-03-16T21:32:53.704Z,12.13
2019-03-16T21:35:27.091Z,12.27
2019-03-16T21:38:00.454Z,12.24
2019-03-16T21:40:33.763Z,12.35
2019-03-16T21:43:07.118Z,12.22
2019-03-16T21:45:40.438Z,12.30
2019-03-16T21:48:14.022Z,12.41
2019-03-16T21:50:47.673Z,12.41
2019-03-16T21:53:21.021Z,12.47
2019-03-16T21:55:54.478Z,12.29
2019-03-16T21:58:28.174Z,12.30
2019-03-16T22:01:01.664Z,12.44
2019-03-16T22:03:41.812Z,12.41
2019-03-16T22:06:10.491Z,12.35
2019-03-16T22:08:43.903Z,12.39
2019-03-16T22:11:17.320Z,12.48
2019-03-16T22:13:50.692Z,12.49
2019-03-16T22:16:24.160Z,12.45
2019-03-16T22:18:57.715Z,12.47
2019-03-16T22:21:31.086Z,12.40
2019-03-16T22:24:04.676Z,12.43
2019-03-16T22:26:38.085Z,12.41
2019-03-16T22:29:11.830Z,12.35
2019-03-16T22:31:45.272Z,12.48
2019-03-16T22:34:18.727Z,12.43
2019-03-16T22:36:52.330Z,12.45
2019-03-16T22:39:25.714Z,12.48
2019-03-16T22:41:59.074Z,12.55
2019-03-16T22:44:32.430Z,12.58
2019-03-16T22:47:05.905Z,12.57
2019-03-16T22:49:39.224Z,12.59
2019-03-16T22:52:12.829Z,12.54
2019-03-16T22:54:46.222Z,12.55
2019-03-16T22:57:19.635Z,12.40
2019-03-16T22:59:53.130Z,12.60
2019-03-16T23:02:26.494Z,12.65
2019-03-16T23:04:59.881Z,12.56
2019-03-16T23:07:33.340Z,12.57
2019-03-16T23:10:09.646Z,12.41
2019-03-16T23:12:43.187Z,12.54
2019-03-16T23:15:16.563Z,12.61
2019-03-16T23:17:52.728Z,12.54
2019-03-16T23:20:25.172Z,12.61
2019-03-16T23:22:58.783Z,12.72
2019-03-16T23:25:32.109Z,12.53
2019-03-16T23:28:05.448Z,12.51
2019-03-16T23:30:38.857Z,12.63
2019-03-16T23:33:12.213Z,12.54
2019-03-16T23:35:45.600Z,12.62
2019-03-16T23:38:18.939Z,12.62
2019-03-16T23:40:52.337Z,12.73
2019-03-16T23:43:25.789Z,12.40
2019-03-16T23:45:59.099Z,12.48
2019-03-16T23:48:32.453Z,12.49
2019-03-16T23:51:06.194Z,12.46
2019-03-16T23:53:39.625Z,12.56
2019-03-16T23:56:12.938Z,12.49
2019-03-16T23:58:46.381Z,12.67
